Florence, South Carolina
Current Conditions -  °F | °C
As of 8:53 AM on Tuesday 21 Oct 2014 (Local Time) from KFLO Reporting Station
Clear Clear  
Wind Chill: 14°   Ceiling: Unl
Heat Index: 14°   Visibility: 10mi
Dew Point: 12°   Wind: 5mph
Humidity: 87%   Direction: 260°W
Pressure: 29.97"   Gusts: NA
Location:  34.19°N, 79.77°W
Report Text: KFLO 211253Z 26004KT 10SM CLR 14/12 A2997 RMK AO2 SLP145 T01440122
Loading
Personal Weather Stations






























Interactive Weather Map
Tropical Storm Tracking
New forecast layout! Learn more

10-Day Weather Forecast

Advertisements
Track Severe Weather on mobile